sensor_id;sensor_type;location;lat;lon;timestamp;temperature;humidity
27016;DHT22;14557;0.000;0.000;2022-10-17T00:02:09;21.10;60.50
27016;DHT22;14557;0.000;0.000;2022-10-17T00:04:35;21.10;60.50
27016;DHT22;14557;0.000;0.000;2022-10-17T00:07:00;21.10;60.50
27016;DHT22;14557;0.000;0.000;2022-10-17T00:09:26;21.10;60.50
27016;DHT22;14557;0.000;0.000;2022-10-17T00:11:51;21.10;60.50
27016;DHT22;14557;0.000;0.000;2022-10-17T00:14:17;21.10;60.50
27016;DHT22;14557;0.000;0.000;2022-10-17T00:16:42;21.10;60.50
27016;DHT22;14557;0.000;0.000;2022-10-17T00:19:08;21.10;60.60
27016;DHT22;14557;0.000;0.000;2022-10-17T00:21:34;21.10;60.80
27016;DHT22;14557;0.000;0.000;2022-10-17T00:23:59;21.10;60.70
27016;DHT22;14557;0.000;0.000;2022-10-17T00:26:25;21.00;60.50
27016;DHT22;14557;0.000;0.000;2022-10-17T00:28:52;21.00;60.40
27016;DHT22;14557;0.000;0.000;2022-10-17T00:31:18;21.00;60.40
27016;DHT22;14557;0.000;0.000;2022-10-17T00:33:44;21.00;60.40
27016;DHT22;14557;0.000;0.000;2022-10-17T00:36:13;21.00;60.50
27016;DHT22;14557;0.000;0.000;2022-10-17T00:38:43;21.00;60.40
27016;DHT22;14557;0.000;0.000;2022-10-17T00:41:09;21.00;60.40
27016;DHT22;14557;0.000;0.000;2022-10-17T00:46:34;20.90;60.40
27016;DHT22;14557;0.000;0.000;2022-10-17T00:49:18;20.90;60.40
27016;DHT22;14557;0.000;0.000;2022-10-17T00:51:45;20.90;60.30
27016;DHT22;14557;0.000;0.000;2022-10-17T00:54:11;20.90;60.30
27016;DHT22;14557;0.000;0.000;2022-10-17T00:56:38;20.90;60.30
27016;DHT22;14557;0.000;0.000;2022-10-17T00:59:05;20.90;60.30
27016;DHT22;14557;0.000;0.000;2022-10-17T01:01:31;20.90;60.40
27016;DHT22;14557;0.000;0.000;2022-10-17T01:03:57;20.90;60.30
27016;DHT22;14557;0.000;0.000;2022-10-17T01:06:22;20.90;60.30
27016;DHT22;14557;0.000;0.000;2022-10-17T01:08:48;20.80;60.20
27016;DHT22;14557;0.000;0.000;2022-10-17T01:11:35;20.80;60.30
27016;DHT22;14557;0.000;0.000;2022-10-17T01:14:08;20.80;60.20
27016;DHT22;14557;0.000;0.000;2022-10-17T01:16:38;20.80;60.20
27016;DHT22;14557;0.000;0.000;2022-10-17T01:39:51;20.70;60.20
27016;DHT22;14557;0.000;0.000;2022-10-17T01:42:20;20.70;60.30
27016;DHT22;14557;0.000;0.000;2022-10-17T01:47:18;20.70;60.20
27016;DHT22;14557;0.000;0.000;2022-10-17T01:49:44;20.70;60.10
27016;DHT22;14557;0.000;0.000;2022-10-17T01:52:15;20.70;60.10
27016;DHT22;14557;0.000;0.000;2022-10-17T01:54:44;20.70;60.10
27016;DHT22;14557;0.000;0.000;2022-10-17T01:57:14;20.70;60.10
27016;DHT22;14557;0.000;0.000;2022-10-17T01:59:43;20.60;60.00
27016;DHT22;14557;0.000;0.000;2022-10-17T02:02:10;20.60;60.00
27016;DHT22;14557;0.000;0.000;2022-10-17T02:04:38;20.60;60.00
27016;DHT22;14557;0.000;0.000;2022-10-17T02:07:05;20.60;60.00
27016;DHT22;14557;0.000;0.000;2022-10-17T02:09:31;20.60;60.10
27016;DHT22;14557;0.000;0.000;2022-10-17T02:12:03;20.60;60.20
27016;DHT22;14557;0.000;0.000;2022-10-17T02:19:33;20.60;60.20
27016;DHT22;14557;0.000;0.000;2022-10-17T02:29:52;20.50;60.20
27016;DHT22;14557;0.000;0.000;2022-10-17T02:32:26;20.50;60.20
27016;DHT22;14557;0.000;0.000;2022-10-17T02:34:54;20.50;60.30
27016;DHT22;14557;0.000;0.000;2022-10-17T02:37:22;20.50;60.40
27016;DHT22;14557;0.000;0.000;2022-10-17T02:39:49;20.50;60.30
27016;DHT22;14557;0.000;0.000;2022-10-17T02:42:15;20.50;60.50
27016;DHT22;14557;0.000;0.000;2022-10-17T02:44:42;20.50;60.30
27016;DHT22;14557;0.000;0.000;2022-10-17T02:47:11;20.50;60.50
27016;DHT22;14557;0.000;0.000;2022-10-17T02:49:38;20.50;60.50
27016;DHT22;14557;0.000;0.000;2022-10-17T02:55:23;20.50;60.60
27016;DHT22;14557;0.000;0.000;2022-10-17T02:57:47;20.50;60.60
27016;DHT22;14557;0.000;0.000;2022-10-17T03:00:14;20.50;60.60
27016;DHT22;14557;0.000;0.000;2022-10-17T03:02:50;20.50;60.70
27016;DHT22;14557;0.000;0.000;2022-10-17T03:05:27;20.40;60.70
27016;DHT22;14557;0.000;0.000;2022-10-17T03:07:53;20.40;60.70
27016;DHT22;14557;0.000;0.000;2022-10-17T03:10:19;20.40;60.80
27016;DHT22;14557;0.000;0.000;2022-10-17T03:12:45;20.40;60.70
27016;DHT22;14557;0.000;0.000;2022-10-17T03:15:10;20.40;60.80
27016;DHT22;14557;0.000;0.000;2022-10-17T03:17:36;20.40;60.70
27016;DHT22;14557;0.000;0.000;2022-10-17T03:20:02;20.40;60.80
27016;DHT22;14557;0.000;0.000;2022-10-17T03:22:28;20.30;60.70
27016;DHT22;14557;0.000;0.000;2022-10-17T03:24:54;20.30;60.80
27016;DHT22;14557;0.000;0.000;2022-10-17T03:27:19;20.30;60.80
27016;DHT22;14557;0.000;0.000;2022-10-17T03:29:45;20.30;60.90
27016;DHT22;14557;0.000;0.000;2022-10-17T03:32:10;20.30;60.90
27016;DHT22;14557;0.000;0.000;2022-10-17T03:34:36;20.30;60.80
27016;DHT22;14557;0.000;0.000;2022-10-17T03:37:01;20.30;60.80
27016;DHT22;14557;0.000;0.000;2022-10-17T03:39:27;20.30;60.80
27016;DHT22;14557;0.000;0.000;2022-10-17T03:41:52;20.30;60.80
27016;DHT22;14557;0.000;0.000;2022-10-17T03:44:18;20.30;60.70
27016;DHT22;14557;0.000;0.000;2022-10-17T03:46:43;20.30;60.50
27016;DHT22;14557;0.000;0.000;2022-10-17T03:49:09;20.30;60.80
27016;DHT22;14557;0.000;0.000;2022-10-17T03:51:35;20.20;60.70
27016;DHT22;14557;0.000;0.000;2022-10-17T03:54:00;20.30;60.80
27016;DHT22;14557;0.000;0.000;2022-10-17T03:56:26;20.30;60.70
27016;DHT22;14557;0.000;0.000;2022-10-17T03:58:52;20.20;60.80
27016;DHT22;14557;0.000;0.000;2022-10-17T04:01:18;20.20;60.80
27016;DHT22;14557;0.000;0.000;2022-10-17T04:03:48;20.20;60.80
27016;DHT22;14557;0.000;0.000;2022-10-17T04:06:14;20.20;60.90
27016;DHT22;14557;0.000;0.000;2022-10-17T04:08:39;20.20;60.70
27016;DHT22;14557;0.000;0.000;2022-10-17T04:11:07;20.20;60.80
27016;DHT22;14557;0.000;0.000;2022-10-17T04:13:33;20.20;60.80
27016;DHT22;14557;0.000;0.000;2022-10-17T04:16:00;20.20;60.90
27016;DHT22;14557;0.000;0.000;2022-10-17T04:18:26;20.20;60.80
27016;DHT22;14557;0.000;0.000;2022-10-17T04:20:51;20.20;61.00
27016;DHT22;14557;0.000;0.000;2022-10-17T04:23:17;20.20;60.90
27016;DHT22;14557;0.000;0.000;2022-10-17T04:25:43;20.20;61.00
27016;DHT22;14557;0.000;0.000;2022-10-17T04:28:08;20.20;61.00
27016;DHT22;14557;0.000;0.000;2022-10-17T04:30:34;20.20;61.10
27016;DHT22;14557;0.000;0.000;2022-10-17T04:32:59;20.20;61.00
27016;DHT22;14557;0.000;0.000;2022-10-17T04:35:25;20.20;61.30
27016;DHT22;14557;0.000;0.000;2022-10-17T04:37:51;20.20;61.10
27016;DHT22;14557;0.000;0.000;2022-10-17T04:40:16;20.10;61.20
27016;DHT22;14557;0.000;0.000;2022-10-17T04:42:42;20.10;61.20
27016;DHT22;14557;0.000;0.000;2022-10-17T04:45:07;20.10;61.20
27016;DHT22;14557;0.000;0.000;2022-10-17T04:47:33;20.10;61.40
27016;DHT22;14557;0.000;0.000;2022-10-17T04:49:58;20.10;61.40
27016;DHT22;14557;0.000;0.000;2022-10-17T04:52:24;20.10;61.50
27016;DHT22;14557;0.000;0.000;2022-10-17T04:54:50;20.10;61.50
27016;DHT22;14557;0.000;0.000;2022-10-17T04:57:15;20.10;61.50
27016;DHT22;14557;0.000;0.000;2022-10-17T04:59:41;20.10;61.50
27016;DHT22;14557;0.000;0.000;2022-10-17T05:02:07;20.00;61.60
27016;DHT22;14557;0.000;0.000;2022-10-17T05:04:32;20.00;61.60
27016;DHT22;14557;0.000;0.000;2022-10-17T05:06:58;20.00;61.70
27016;DHT22;14557;0.000;0.000;2022-10-17T05:09:23;20.00;61.80
27016;DHT22;14557;0.000;0.000;2022-10-17T05:11:49;20.00;61.80
27016;DHT22;14557;0.000;0.000;2022-10-17T05:14:14;20.00;61.80
27016;DHT22;14557;0.000;0.000;2022-10-17T05:16:40;20.00;61.90
27016;DHT22;14557;0.000;0.000;2022-10-17T05:19:06;20.00;61.90
27016;DHT22;14557;0.000;0.000;2022-10-17T05:21:31;20.00;61.90
27016;DHT22;14557;0.000;0.000;2022-10-17T05:23:57;20.00;61.90
27016;DHT22;14557;0.000;0.000;2022-10-17T05:26:23;19.90;61.80
27016;DHT22;14557;0.000;0.000;2022-10-17T05:28:49;19.90;61.80
27016;DHT22;14557;0.000;0.000;2022-10-17T05:31:16;20.00;61.80
27016;DHT22;14557;0.000;0.000;2022-10-17T05:33:42;19.90;61.80
27016;DHT22;14557;0.000;0.000;2022-10-17T05:36:07;20.00;61.80
27016;DHT22;14557;0.000;0.000;2022-10-17T05:38:33;20.00;61.70
27016;DHT22;14557;0.000;0.000;2022-10-17T05:40:59;20.00;61.70
27016;DHT22;14557;0.000;0.000;2022-10-17T05:43:25;20.00;61.70
27016;DHT22;14557;0.000;0.000;2022-10-17T05:45:51;19.90;61.70
27016;DHT22;14557;0.000;0.000;2022-10-17T05:48:16;20.00;61.80
27016;DHT22;14557;0.000;0.000;2022-10-17T05:50:42;19.90;61.80
27016;DHT22;14557;0.000;0.000;2022-10-17T05:53:08;20.00;61.80
27016;DHT22;14557;0.000;0.000;2022-10-17T05:55:34;19.90;61.90
27016;DHT22;14557;0.000;0.000;2022-10-17T05:57:59;19.90;61.70
27016;DHT22;14557;0.000;0.000;2022-10-17T06:00:25;19.90;61.80
27016;DHT22;14557;0.000;0.000;2022-10-17T06:02:50;19.90;61.60
27016;DHT22;14557;0.000;0.000;2022-10-17T06:05:16;19.90;61.80
27016;DHT22;14557;0.000;0.000;2022-10-17T06:07:42;19.90;61.70
27016;DHT22;14557;0.000;0.000;2022-10-17T06:10:07;19.90;61.70
27016;DHT22;14557;0.000;0.000;2022-10-17T06:12:34;19.90;61.80
27016;DHT22;14557;0.000;0.000;2022-10-17T06:14:59;19.90;61.80
27016;DHT22;14557;0.000;0.000;2022-10-17T06:17:25;19.90;61.90
27016;DHT22;14557;0.000;0.000;2022-10-17T06:19:50;19.90;61.80
27016;DHT22;14557;0.000;0.000;2022-10-17T06:22:16;19.90;61.90
27016;DHT22;14557;0.000;0.000;2022-10-17T06:24:41;19.90;61.70
27016;DHT22;14557;0.000;0.000;2022-10-17T06:27:07;19.90;61.80
27016;DHT22;14557;0.000;0.000;2022-10-17T06:29:33;19.90;61.90
27016;DHT22;14557;0.000;0.000;2022-10-17T06:31:58;19.90;62.00
27016;DHT22;14557;0.000;0.000;2022-10-17T06:34:24;19.90;62.00
27016;DHT22;14557;0.000;0.000;2022-10-17T06:36:49;19.90;62.10
27016;DHT22;14557;0.000;0.000;2022-10-17T06:39:15;19.80;62.00
27016;DHT22;14557;0.000;0.000;2022-10-17T06:41:40;19.80;62.10
27016;DHT22;14557;0.000;0.000;2022-10-17T06:44:08;19.80;62.00
27016;DHT22;14557;0.000;0.000;2022-10-17T06:46:38;19.80;62.00
27016;DHT22;14557;0.000;0.000;2022-10-17T06:49:04;19.80;62.00
27016;DHT22;14557;0.000;0.000;2022-10-17T06:51:38;19.80;62.10
27016;DHT22;14557;0.000;0.000;2022-10-17T06:54:04;19.80;62.20
27016;DHT22;14557;0.000;0.000;2022-10-17T06:56:29;19.80;62.20
27016;DHT22;14557;0.000;0.000;2022-10-17T06:58:55;19.70;62.10
27016;DHT22;14557;0.000;0.000;2022-10-17T07:01:20;19.80;62.20
27016;DHT22;14557;0.000;0.000;2022-10-17T07:03:47;19.80;62.20
27016;DHT22;14557;0.000;0.000;2022-10-17T07:06:13;19.70;62.20
27016;DHT22;14557;0.000;0.000;2022-10-17T07:08:41;19.80;62.20
27016;DHT22;14557;0.000;0.000;2022-10-17T07:11:11;19.80;62.60
27016;DHT22;14557;0.000;0.000;2022-10-17T07:13:37;19.80;62.80
27016;DHT22;14557;0.000;0.000;2022-10-17T07:16:03;19.80;64.60
27016;DHT22;14557;0.000;0.000;2022-10-17T07:18:29;19.80;63.90
27016;DHT22;14557;0.000;0.000;2022-10-17T07:20:55;19.80;63.50
27016;DHT22;14557;0.000;0.000;2022-10-17T07:23:21;19.80;63.50
27016;DHT22;14557;0.000;0.000;2022-10-17T07:25:46;19.80;63.30
27016;DHT22;14557;0.000;0.000;2022-10-17T07:28:13;19.80;63.40
27016;DHT22;14557;0.000;0.000;2022-10-17T07:30:38;19.80;64.00
27016;DHT22;14557;0.000;0.000;2022-10-17T07:33:04;19.80;63.80
27016;DHT22;14557;0.000;0.000;2022-10-17T07:35:29;19.80;64.20
27016;DHT22;14557;0.000;0.000;2022-10-17T07:37:55;19.80;63.50
27016;DHT22;14557;0.000;0.000;2022-10-17T07:40:20;19.90;63.60
27016;DHT22;14557;0.000;0.000;2022-10-17T07:42:46;19.90;63.50
27016;DHT22;14557;0.000;0.000;2022-10-17T07:45:12;19.90;65.10
27016;DHT22;14557;0.000;0.000;2022-10-17T07:47:37;19.90;66.50
27016;DHT22;14557;0.000;0.000;2022-10-17T07:50:03;19.90;66.50
27016;DHT22;14557;0.000;0.000;2022-10-17T07:52:29;19.90;66.20
27016;DHT22;14557;0.000;0.000;2022-10-17T07:54:55;19.90;66.00
27016;DHT22;14557;0.000;0.000;2022-10-17T07:57:20;19.90;65.20
27016;DHT22;14557;0.000;0.000;2022-10-17T07:59:46;19.90;64.80
27016;DHT22;14557;0.000;0.000;2022-10-17T08:02:16;19.90;65.40
27016;DHT22;14557;0.000;0.000;2022-10-17T08:04:43;19.90;66.40
27016;DHT22;14557;0.000;0.000;2022-10-17T08:07:08;20.00;69.70
27016;DHT22;14557;0.000;0.000;2022-10-17T08:09:34;20.00;67.00
27016;DHT22;14557;0.000;0.000;2022-10-17T08:11:59;20.00;66.10
27016;DHT22;14557;0.000;0.000;2022-10-17T08:14:25;20.00;65.40
27016;DHT22;14557;0.000;0.000;2022-10-17T08:16:52;20.00;65.20
27016;DHT22;14557;0.000;0.000;2022-10-17T08:19:18;20.00;64.90
27016;DHT22;14557;0.000;0.000;2022-10-17T08:21:43;20.00;64.80
27016;DHT22;14557;0.000;0.000;2022-10-17T08:24:11;20.00;64.70
27016;DHT22;14557;0.000;0.000;2022-10-17T08:26:37;20.00;64.70
27016;DHT22;14557;0.000;0.000;2022-10-17T08:29:02;20.00;64.80
27016;DHT22;14557;0.000;0.000;2022-10-17T08:31:28;20.00;64.80
27016;DHT22;14557;0.000;0.000;2022-10-17T08:33:53;20.00;64.50
27016;DHT22;14557;0.000;0.000;2022-10-17T08:36:19;20.00;64.50
27016;DHT22;14557;0.000;0.000;2022-10-17T08:38:45;20.00;64.50
27016;DHT22;14557;0.000;0.000;2022-10-17T08:46:22;20.00;64.30
27016;DHT22;14557;0.000;0.000;2022-10-17T08:48:53;20.00;64.30
27016;DHT22;14557;0.000;0.000;2022-10-17T08:51:20;20.00;64.20
27016;DHT22;14557;0.000;0.000;2022-10-17T08:56:43;20.00;63.70
27016;DHT22;14557;0.000;0.000;2022-10-17T08:59:12;19.90;63.50
27016;DHT22;14557;0.000;0.000;2022-10-17T09:06:36;19.90;64.60
27016;DHT22;14557;0.000;0.000;2022-10-17T09:19:18;20.10;65.40
27016;DHT22;14557;0.000;0.000;2022-10-17T09:21:46;20.10;65.10
27016;DHT22;14557;0.000;0.000;2022-10-17T09:24:18;20.10;65.00
27016;DHT22;14557;0.000;0.000;2022-10-17T09:26:45;20.20;65.10
27016;DHT22;14557;0.000;0.000;2022-10-17T09:29:18;20.20;64.90
27016;DHT22;14557;0.000;0.000;2022-10-17T09:31:46;20.20;64.80
27016;DHT22;14557;0.000;0.000;2022-10-17T09:34:13;20.30;64.90
27016;DHT22;14557;0.000;0.000;2022-10-17T09:36:40;20.40;64.70
27016;DHT22;14557;0.000;0.000;2022-10-17T09:39:17;20.40;64.60
27016;DHT22;14557;0.000;0.000;2022-10-17T09:41:46;20.50;64.20
27016;DHT22;14557;0.000;0.000;2022-10-17T09:44:15;20.50;64.10
27016;DHT22;14557;0.000;0.000;2022-10-17T09:46:41;20.60;64.00
27016;DHT22;14557;0.000;0.000;2022-10-17T09:49:12;20.70;64.50
27016;DHT22;14557;0.000;0.000;2022-10-17T09:51:38;20.70;64.60
27016;DHT22;14557;0.000;0.000;2022-10-17T09:54:11;20.80;63.80
27016;DHT22;14557;0.000;0.000;2022-10-17T10:02:13;21.00;61.70
27016;DHT22;14557;0.000;0.000;2022-10-17T10:07:21;21.20;61.40
27016;DHT22;14557;0.000;0.000;2022-10-17T10:09:47;21.20;61.10
27016;DHT22;14557;0.000;0.000;2022-10-17T10:12:18;21.30;60.70
27016;DHT22;14557;0.000;0.000;2022-10-17T10:14:44;21.30;60.60
27016;DHT22;14557;0.000;0.000;2022-10-17T10:19:54;21.30;60.00
27016;DHT22;14557;0.000;0.000;2022-10-17T10:22:20;21.40;59.80
27016;DHT22;14557;0.000;0.000;2022-10-17T10:27:32;21.40;59.80
27016;DHT22;14557;0.000;0.000;2022-10-17T10:29:58;21.40;59.80
27016;DHT22;14557;0.000;0.000;2022-10-17T10:32:25;21.40;59.80
27016;DHT22;14557;0.000;0.000;2022-10-17T10:34:58;21.40;59.60
27016;DHT22;14557;0.000;0.000;2022-10-17T10:37:43;21.50;59.50
27016;DHT22;14557;0.000;0.000;2022-10-17T10:40:16;21.50;59.50
27016;DHT22;14557;0.000;0.000;2022-10-17T10:42:45;21.50;59.40
27016;DHT22;14557;0.000;0.000;2022-10-17T10:45:24;21.50;59.40
27016;DHT22;14557;0.000;0.000;2022-10-17T10:47:51;21.50;59.30
27016;DHT22;14557;0.000;0.000;2022-10-17T10:50:30;21.50;59.20
27016;DHT22;14557;0.000;0.000;2022-10-17T10:55:34;21.60;58.80
27016;DHT22;14557;0.000;0.000;2022-10-17T10:58:03;21.60;58.70
27016;DHT22;14557;0.000;0.000;2022-10-17T11:00:31;21.60;58.90
27016;DHT22;14557;0.000;0.000;2022-10-17T11:03:00;21.50;58.90
27016;DHT22;14557;0.000;0.000;2022-10-17T11:08:26;21.50;58.50
27016;DHT22;14557;0.000;0.000;2022-10-17T11:13:45;21.50;60.00
27016;DHT22;14557;0.000;0.000;2022-10-17T11:26:25;21.50;59.10
27016;DHT22;14557;0.000;0.000;2022-10-17T11:28:58;21.60;61.40
27016;DHT22;14557;0.000;0.000;2022-10-17T11:31:33;21.80;61.40
27016;DHT22;14557;0.000;0.000;2022-10-17T11:36:27;21.90;59.80
27016;DHT22;14557;0.000;0.000;2022-10-17T11:38:58;21.80;63.70
27016;DHT22;14557;0.000;0.000;2022-10-17T11:41:28;21.80;67.90
27016;DHT22;14557;0.000;0.000;2022-10-17T11:43:58;21.70;66.50
27016;DHT22;14557;0.000;0.000;2022-10-17T11:46:26;21.70;66.10
27016;DHT22;14557;0.000;0.000;2022-10-17T11:49:01;21.60;66.50
27016;DHT22;14557;0.000;0.000;2022-10-17T11:51:29;21.60;63.40
27016;DHT22;14557;0.000;0.000;2022-10-17T11:56:26;21.60;69.30
27016;DHT22;14557;0.000;0.000;2022-10-17T12:01:42;21.50;66.90
27016;DHT22;14557;0.000;0.000;2022-10-17T12:04:14;21.50;63.40
27016;DHT22;14557;0.000;0.000;2022-10-17T12:11:44;21.50;63.30
27016;DHT22;14557;0.000;0.000;2022-10-17T12:16:59;21.40;61.40
27016;DHT22;14557;0.000;0.000;2022-10-17T12:19:26;21.40;61.20
27016;DHT22;14557;0.000;0.000;2022-10-17T12:21:55;21.40;61.00
27016;DHT22;14557;0.000;0.000;2022-10-17T12:24:28;21.40;60.70
27016;DHT22;14557;0.000;0.000;2022-10-17T12:26:55;21.40;61.20
27016;DHT22;14557;0.000;0.000;2022-10-17T12:29:26;21.40;60.40
27016;DHT22;14557;0.000;0.000;2022-10-17T12:31:53;21.40;60.30
27016;DHT22;14557;0.000;0.000;2022-10-17T12:34:18;21.40;60.00
27016;DHT22;14557;0.000;0.000;2022-10-17T12:36:46;21.30;60.10
27016;DHT22;14557;0.000;0.000;2022-10-17T12:54:38;21.20;59.90
27016;DHT22;14557;0.000;0.000;2022-10-17T12:57:12;21.20;59.60
27016;DHT22;14557;0.000;0.000;2022-10-17T12:59:41;21.20;62.50
27016;DHT22;14557;0.000;0.000;2022-10-17T13:02:07;21.20;61.70
27016;DHT22;14557;0.000;0.000;2022-10-17T13:04:37;21.60;61.40
27016;DHT22;14557;0.000;0.000;2022-10-17T13:07:03;21.60;60.40
27016;DHT22;14557;0.000;0.000;2022-10-17T13:09:29;21.70;60.90
27016;DHT22;14557;0.000;0.000;2022-10-17T13:11:56;21.80;61.40
27016;DHT22;14557;0.000;0.000;2022-10-17T13:14:22;22.50;60.00
27016;DHT22;14557;0.000;0.000;2022-10-17T13:16:50;22.50;59.50
27016;DHT22;14557;0.000;0.000;2022-10-17T13:19:17;22.60;59.10
27016;DHT22;14557;0.000;0.000;2022-10-17T13:21:52;22.60;62.40
27016;DHT22;14557;0.000;0.000;2022-10-17T13:24:21;22.70;58.90
27016;DHT22;14557;0.000;0.000;2022-10-17T13:26:47;22.70;58.70
27016;DHT22;14557;0.000;0.000;2022-10-17T13:29:13;22.80;58.60
27016;DHT22;14557;0.000;0.000;2022-10-17T13:31:40;22.80;58.00
27016;DHT22;14557;0.000;0.000;2022-10-17T13:34:14;22.70;57.50
27016;DHT22;14557;0.000;0.000;2022-10-17T13:36:40;22.60;57.20
27016;DHT22;14557;0.000;0.000;2022-10-17T13:39:07;22.50;56.90
27016;DHT22;14557;0.000;0.000;2022-10-17T13:41:33;22.50;56.70
27016;DHT22;14557;0.000;0.000;2022-10-17T13:43:59;22.40;56.40
27016;DHT22;14557;0.000;0.000;2022-10-17T13:46:27;22.50;56.20
27016;DHT22;14557;0.000;0.000;2022-10-17T13:48:53;22.50;56.20
27016;DHT22;14557;0.000;0.000;2022-10-17T13:51:20;22.50;56.10
27016;DHT22;14557;0.000;0.000;2022-10-17T13:53:46;22.40;56.10
27016;DHT22;14557;0.000;0.000;2022-10-17T13:58:41;22.40;56.10
27016;DHT22;14557;0.000;0.000;2022-10-17T14:01:07;22.40;56.00
27016;DHT22;14557;0.000;0.000;2022-10-17T14:03:33;22.40;56.00
27016;DHT22;14557;0.000;0.000;2022-10-17T14:06:13;22.40;55.90
27016;DHT22;14557;0.000;0.000;2022-10-17T14:08:45;22.40;55.80
27016;DHT22;14557;0.000;0.000;2022-10-17T14:11:12;22.40;55.80
27016;DHT22;14557;0.000;0.000;2022-10-17T14:13:38;22.40;55.70
27016;DHT22;14557;0.000;0.000;2022-10-17T14:16:04;22.40;55.80
27016;DHT22;14557;0.000;0.000;2022-10-17T14:18:31;22.40;55.70
27016;DHT22;14557;0.000;0.000;2022-10-17T14:20:57;22.40;56.10
27016;DHT22;14557;0.000;0.000;2022-10-17T14:23:36;22.30;56.20
27016;DHT22;14557;0.000;0.000;2022-10-17T14:28:30;22.30;56.30
27016;DHT22;14557;0.000;0.000;2022-10-17T14:31:07;22.30;56.60
27016;DHT22;14557;0.000;0.000;2022-10-17T14:33:33;22.30;56.60
27016;DHT22;14557;0.000;0.000;2022-10-17T14:36:00;22.30;56.40
27016;DHT22;14557;0.000;0.000;2022-10-17T14:38:26;22.30;56.50
27016;DHT22;14557;0.000;0.000;2022-10-17T14:40:54;22.30;56.50
27016;DHT22;14557;0.000;0.000;2022-10-17T14:43:24;22.30;56.60
27016;DHT22;14557;0.000;0.000;2022-10-17T14:45:50;22.20;56.60
27016;DHT22;14557;0.000;0.000;2022-10-17T14:48:19;22.20;56.50
27016;DHT22;14557;0.000;0.000;2022-10-17T14:51:08;22.20;56.50
27016;DHT22;14557;0.000;0.000;2022-10-17T14:53:34;22.20;56.30
27016;DHT22;14557;0.000;0.000;2022-10-17T14:56:04;22.20;56.50
27016;DHT22;14557;0.000;0.000;2022-10-17T14:58:44;22.10;56.50
27016;DHT22;14557;0.000;0.000;2022-10-17T15:01:09;22.10;56.40
27016;DHT22;14557;0.000;0.000;2022-10-17T15:03:35;22.10;56.40
27016;DHT22;14557;0.000;0.000;2022-10-17T15:06:08;22.10;56.60
27016;DHT22;14557;0.000;0.000;2022-10-17T15:08:33;22.10;56.80
27016;DHT22;14557;0.000;0.000;2022-10-17T15:10:59;22.00;57.00
27016;DHT22;14557;0.000;0.000;2022-10-17T15:13:24;22.00;57.00
27016;DHT22;14557;0.000;0.000;2022-10-17T15:15:50;22.00;57.10
27016;DHT22;14557;0.000;0.000;2022-10-17T15:18:16;22.00;57.00
27016;DHT22;14557;0.000;0.000;2022-10-17T15:20:41;22.00;56.90
27016;DHT22;14557;0.000;0.000;2022-10-17T15:23:07;21.90;56.80
27016;DHT22;14557;0.000;0.000;2022-10-17T15:25:33;21.90;56.80
27016;DHT22;14557;0.000;0.000;2022-10-17T15:27:58;21.90;56.70
27016;DHT22;14557;0.000;0.000;2022-10-17T15:30:25;21.90;56.70
27016;DHT22;14557;0.000;0.000;2022-10-17T15:32:51;21.90;56.70
27016;DHT22;14557;0.000;0.000;2022-10-17T15:35:17;21.80;56.60
27016;DHT22;14557;0.000;0.000;2022-10-17T15:37:43;21.80;56.70
27016;DHT22;14557;0.000;0.000;2022-10-17T15:40:18;21.80;56.70
27016;DHT22;14557;0.000;0.000;2022-10-17T15:42:43;21.80;56.60
27016;DHT22;14557;0.000;0.000;2022-10-17T15:45:13;21.80;56.50
27016;DHT22;14557;0.000;0.000;2022-10-17T15:47:42;21.70;56.50
27016;DHT22;14557;0.000;0.000;2022-10-17T15:50:12;21.70;56.60
27016;DHT22;14557;0.000;0.000;2022-10-17T15:52:38;21.70;56.80
27016;DHT22;14557;0.000;0.000;2022-10-17T15:55:06;21.70;56.80
27016;DHT22;14557;0.000;0.000;2022-10-17T15:57:32;21.70;56.70
27016;DHT22;14557;0.000;0.000;2022-10-17T15:59:58;21.60;56.80
27016;DHT22;14557;0.000;0.000;2022-10-17T16:02:24;21.60;56.90
27016;DHT22;14557;0.000;0.000;2022-10-17T16:04:50;21.60;57.10
27016;DHT22;14557;0.000;0.000;2022-10-17T16:07:16;21.60;57.00
27016;DHT22;14557;0.000;0.000;2022-10-17T16:09:42;21.60;57.20
27016;DHT22;14557;0.000;0.000;2022-10-17T16:12:15;21.60;57.80
27016;DHT22;14557;0.000;0.000;2022-10-17T16:14:41;21.50;57.60
27016;DHT22;14557;0.000;0.000;2022-10-17T16:17:12;21.50;57.90
27016;DHT22;14557;0.000;0.000;2022-10-17T16:19:37;21.50;57.80
27016;DHT22;14557;0.000;0.000;2022-10-17T16:22:03;21.50;57.80
27016;DHT22;14557;0.000;0.000;2022-10-17T16:24:30;21.50;57.80
27016;DHT22;14557;0.000;0.000;2022-10-17T16:26:56;21.50;57.80
27016;DHT22;14557;0.000;0.000;2022-10-17T16:29:21;21.50;58.20
27016;DHT22;14557;0.000;0.000;2022-10-17T16:31:47;21.50;57.70
27016;DHT22;14557;0.000;0.000;2022-10-17T16:34:13;21.50;57.70
27016;DHT22;14557;0.000;0.000;2022-10-17T16:36:39;21.50;57.60
27016;DHT22;14557;0.000;0.000;2022-10-17T16:39:05;21.50;57.60
27016;DHT22;14557;0.000;0.000;2022-10-17T16:41:35;21.50;57.50
27016;DHT22;14557;0.000;0.000;2022-10-17T16:44:02;21.40;57.60
27016;DHT22;14557;0.000;0.000;2022-10-17T16:46:29;21.40;57.60
27016;DHT22;14557;0.000;0.000;2022-10-17T16:48:55;21.40;57.70
27016;DHT22;14557;0.000;0.000;2022-10-17T16:51:20;21.40;57.70
27016;DHT22;14557;0.000;0.000;2022-10-17T16:53:47;21.40;57.70
27016;DHT22;14557;0.000;0.000;2022-10-17T16:56:15;21.40;57.50
27016;DHT22;14557;0.000;0.000;2022-10-17T16:58:42;21.40;57.50
27016;DHT22;14557;0.000;0.000;2022-10-17T17:01:09;21.40;57.50
27016;DHT22;14557;0.000;0.000;2022-10-17T17:03:35;21.30;57.60
27016;DHT22;14557;0.000;0.000;2022-10-17T17:06:02;21.30;57.40
27016;DHT22;14557;0.000;0.000;2022-10-17T17:08:27;21.30;57.60
27016;DHT22;14557;0.000;0.000;2022-10-17T17:10:53;21.30;57.60
27016;DHT22;14557;0.000;0.000;2022-10-17T17:13:19;21.30;57.50
27016;DHT22;14557;0.000;0.000;2022-10-17T17:15:45;21.30;57.30
27016;DHT22;14557;0.000;0.000;2022-10-17T17:18:11;21.30;57.40
27016;DHT22;14557;0.000;0.000;2022-10-17T17:20:38;21.30;57.50
27016;DHT22;14557;0.000;0.000;2022-10-17T17:23:04;21.30;57.50
27016;DHT22;14557;0.000;0.000;2022-10-17T17:25:32;21.20;57.50
27016;DHT22;14557;0.000;0.000;2022-10-17T17:27:58;21.30;57.70
27016;DHT22;14557;0.000;0.000;2022-10-17T17:30:26;21.20;57.60
27016;DHT22;14557;0.000;0.000;2022-10-17T17:32:51;21.20;57.60
27016;DHT22;14557;0.000;0.000;2022-10-17T17:35:17;21.20;57.60
27016;DHT22;14557;0.000;0.000;2022-10-17T17:37:42;21.20;57.70
27016;DHT22;14557;0.000;0.000;2022-10-17T17:40:08;21.20;57.50
27016;DHT22;14557;0.000;0.000;2022-10-17T17:42:34;21.20;57.40
27016;DHT22;14557;0.000;0.000;2022-10-17T17:44:59;21.20;57.50
27016;DHT22;14557;0.000;0.000;2022-10-17T17:47:27;21.20;59.20
27016;DHT22;14557;0.000;0.000;2022-10-17T17:49:52;21.20;59.30
27016;DHT22;14557;0.000;0.000;2022-10-17T17:52:18;21.20;59.60
27016;DHT22;14557;0.000;0.000;2022-10-17T17:54:44;21.20;59.20
27016;DHT22;14557;0.000;0.000;2022-10-17T17:57:09;21.20;60.30
27016;DHT22;14557;0.000;0.000;2022-10-17T17:59:36;21.20;59.60